1977 Severe Tropical Cyclone KAREN (1977061S14125)


IBTrACS version v04r00. Visit IBTrACS website for data access.
Please direct all questions to the IBTrACS Q and A forum

Storm track - Intensity - Wind Radii - Intensity Data - Source Data - All data

Summary Information

Storm ID 1977061S14125
Start Mar 2 01Z
Max Intensity 85 kt (Mar 7 00Z), 970 mb (Mar 6 19Z)
End Mar 9 16Z
ATCF IDs ,SH191977
Track status Best track data.

Storm track plot

Map of storm track

Intensity plots

Map of storm track

Radial wind information

No radial wind information for this storm


Position and Intensity Table

BASIN ISO_TIME_________ NATURE LAT LON WMO WIND WMO PRES USA WIND BOM WIND BOM PRES DS824 WIND DS824 PRES TD9636 WIND NEUMANN WIND NEUMANN PRES
degrees north degrees east kts mb kts kts mb kts mb kts kts mb
SI 1977-03-02 01:00:00 NR -14.00 124.50 25 1002 25 1002
SI 03:00:00 NR -14.00 124.37 25 1001
SI 04:00:00 NR -14.00 124.30 25 1001 25 1001
SI 06:00:00 TS -14.00 124.19 25 999 30 999 30 1000
SI 07:00:00 TS -13.99 124.14 25 999 25 999 30 999 30 999
SI 09:00:00 TS -13.97 124.02 25 999 30 999 30 999
SI 10:00:00 TS -13.95 123.96 25 999 25 999 30 999 30 999
SI 12:00:00 TS -13.91 123.80 30 25 999 30 999 30 30 999
SI 13:00:00 TS -13.90 123.71 25 999 30 25 999 30 998 30 30 998
SI 15:00:00 TS -13.89 123.57 32 28 998 32 998 31 32 998
SI 16:00:00 TS -13.90 123.49 30 998 33 30 998 33 997 31 33 997
SI 18:00:00 TS -13.90 123.36 35 30 997 35 997 32 35 997
SI 19:00:00 TS -13.91 123.29 30 997 35 30 997 35 996 32 35 996
SI 21:00:00 TS -13.94 123.15 35 30 997 35 996 33 35 996
SI 22:00:00 TS -13.96 123.09 30 997 35 30 997 35 996 34 35 996
SI 1977-03-03 00:00:00 TS -14.00 122.96 35 30 996 35 996 35 35 996
SI 01:00:00 TS -14.02 122.90 30 996 35 30 996 35 995 35 35 995
SI 03:00:00 TS -14.08 122.78 35 30 996 37 995 35 37 995
SI 04:00:00 TS -14.11 122.73 30 996 35 30 996 38 994 35 38 994
SI 06:00:00 TS -14.17 122.64 35 33 994 40 994 35 40 994
SI 07:00:00 TS -14.21 122.60 35 994 35 35 994 40 994 35 40 994
SI 09:00:00 TS -14.27 122.53 35 35 994 40 994 35 40 994
SI 10:00:00 TS -14.31 122.50 35 994 35 35 994 40 994 35 40 994
SI 12:00:00 TS -14.38 122.44 35 38 994 40 994 35 40 994
SI 13:00:00 TS -14.41 122.40 40 994 35 40 994 40 993 35 40 993
SI 15:00:00 TS -14.48 122.33 37 40 993 42 993 37 42 993
SI 16:00:00 TS -14.51 122.30 40 993 38 40 993 43 992 38 43 992
SI 18:00:00 TS -14.58 122.23 40 43 992 45 992 40 45 992
SI 19:00:00 TS -14.62 122.20 45 992 40 45 992 45 992 40 45 992
SI 21:00:00 TS -14.71 122.13 42 45 992 45 992 42 45 992
SI 22:00:00 TS -14.75 122.09 45 992 43 45 992 45 992 43 45 992
SI 1977-03-04 00:00:00 TS -14.86 122.04 45 45 992 45 992 45 45 992
SI 01:00:00 TS -14.91 122.02 45 992 45 45 992 45 991 45 45 991
SI 03:00:00 TS -15.00 121.98 47 45 991 47 990 47 45 991
SI 04:00:00 TS -15.05 121.97 45 991 48 45 991 48 990 48 45 990
SI 06:00:00 TS -15.16 121.96 50 48 989 50 989 50 45 990
SI 07:00:00 TS -15.22 121.96 50 989 50 50 989 50 988 50 45 989
SI 09:00:00 TS -15.36 121.97 52 50 988 50 988 52 47 988
SI 10:00:00 TS -15.42 121.98 50 988 53 50 988 50 987 53 48 988
SI 12:00:00 TS -15.56 122.01 55 50 987 50 987 55 50 987
SI 13:00:00 TS -15.62 122.02 50 987 55 50 987 50 986 55 50 986
SI 15:00:00 TS -15.74 122.04 57 53 986 50 986 56 52 985
SI 16:00:00 TS -15.79 122.05 55 986 58 55 986 50 986 56 53 984
SI 18:00:00 TS -15.91 122.07 60 55 986 50 986 57 55 983
SI 19:00:00 TS -15.97 122.09 55 986 60 55 986 50 985 57 55 982
SI 21:00:00 TS -16.07 122.10 60 55 985 52 985 58 57 982
SI 22:00:00 TS -16.12 122.11 55 985 60 55 985 53 985 59 58 981
SI 1977-03-05 00:00:00 TS -16.25 122.12 60 55 985 55 985 60 60 981
SI 01:00:00 TS -16.33 122.12 55 985 60 55 985 55 983 60 60 980
SI 03:00:00 TS -16.51 122.11 62 55 983 57 981 62 62 980
SI 04:00:00 TS -16.60 122.11 55 983 63 55 983 58 980 63 63 979
SI 06:00:00 TS -16.78 122.07 65 58 982 60 978 65 65 979
SI 07:00:00 TS -16.87 122.06 60 982 65 60 982 60 978 65 65 978
SI 09:00:00 TS -17.02 122.03 67 60 980 60 978 67 65 978
SI 10:00:00 TS -17.10 122.00 60 980 68 60 980 60 978 68 65 977
SI 12:00:00 TS -17.26 121.92 70 60 979 60 979 70 65 977
SI 13:00:00 TS -17.33 121.88 60 979 70 60 979 60 978 70 65 976
SI 15:00:00 TS -17.49 121.76 72 63 977 62 977 71 65 976
SI 16:00:00 TS -17.56 121.69 65 977 73 65 977 63 977 71 65 976
SI 18:00:00 TS -17.73 121.48 75 65 976 65 976 72 65 976
SI 19:00:00 TS -17.82 121.36 65 976 75 65 976 65 975 72 65 975
SI 21:00:00 TS -17.98 121.09 75 68 975 65 975 73 67 975
SI 22:00:00 TS -18.06 120.94 70 975 75 70 975 65 975 74 68 975
SI 1977-03-06 00:00:00 TS -18.23 120.63 75 70 975 65 975 75 70 975
SI 01:00:00 TS -18.32 120.47 70 975 75 70 975 65 974 75 70 974
SI 03:00:00 TS -18.51 120.15 75 70 974 67 974 75 70 974
SI 04:00:00 TS -18.60 119.99 70 974 75 70 974 68 973 75 70 973
SI 06:00:00 TS -18.79 119.66 75 73 973 70 973 75 70 973
SI 07:00:00 TS -18.88 119.51 75 973 75 75 973 70 973 75 70 973
SI 09:00:00 TS -19.08 119.18 75 75 973 70 973 75 70 973
SI 10:00:00 TS -19.17 119.01 75 973 75 75 973 70 973 75 70 973
SI 12:00:00 TS -19.34 118.65 75 75 973 70 973 75 70 973
SI 13:00:00 TS -19.42 118.46 75 973 75 75 973 70 972 75 70 972
SI 15:00:00 TS -19.57 118.08 77 78 972 70 972 77 72 972
SI 16:00:00 TS -19.65 117.88 80 972 78 80 972 70 971 78 73 971
SI 18:00:00 TS -19.81 117.50 80 80 971 70 971 80 75 971
SI 19:00:00 TS -19.91 117.32 80 971 80 80 971 70 970 80 75 970
SI 21:00:00 TS -20.17 116.96 82 80 971 70 970 82 75 970
SI 21:30:00 TS -20.22 116.89 80 82 80 971 70 970 82 75 970
SI 22:00:00 TS -20.27 116.82 80 971 83 80 971 70 970 83 75 970
SI 1977-03-07 00:00:00 TS -20.45 116.51 85 80 970 70 970 85 75 970
SI 01:00:00 TS -20.53 116.35 80 970 84 80 970 70 970 83 75 970
SI 03:00:00 TS -20.67 116.03 82 80 970 70 970 81 75 970
SI 04:00:00 TS -20.73 115.87 80 970 81 80 970 70 970 80 75 970
SI 06:00:00 TS -20.86 115.58 80 80 970 70 970 77 75 970
SI 07:00:00 TS -20.92 115.45 80 970 78 80 970 68 971 76 74 970
SI 09:00:00 TS -21.05 115.21 75 80 971 65 974 73 72 972
SI 10:00:00 TS -21.12 115.10 80 972 73 80 972 63 975 72 71 973
SI 12:00:00 TS -21.26 114.88 70 73 976 60 978 70 70 975
SI 13:00:00 TS -21.33 114.77 70 978 68 70 978 58 979 68 67 976
SI 15:00:00 TS -21.49 114.55 65 66 981 55 982 65 62 979
SI 16:00:00 TS -21.57 114.44 65 983 63 65 983 53 983 63 60 980
SI 18:00:00 TS -21.74 114.24 60 61 985 50 986 60 55 983
SI 19:00:00 TS -21.83 114.13 60 986 58 60 986 49 986 58 54 983
SI 21:00:00 TS -22.04 113.91 55 60 986 47 988 55 52 985
SI 22:00:00 TS -22.14 113.81 60 987 53 60 987 46 988 53 51 985
SI 1977-03-08 00:00:00 TS -22.33 113.66 50 53 989 45 990 50 50 987
SI 01:00:00 TS -22.43 113.60 50 990 48 50 990 45 990 48 49 987
SI 03:00:00 TS -22.61 113.52 45 50 990 45 991 46 47 988
SI 04:00:00 TS -22.70 113.49 50 990 43 50 990 45 991 45 46 988
SI 06:00:00 TS -22.85 113.43 40 46 991 45 992 42 45 990
SI 07:00:00 TS -22.92 113.40 45 992 39 45 992 43 992 41 44 990
SI 09:00:00 TS -23.06 113.34 37 38 993 40 994 38 42 992
SI 10:00:00 TS -23.13 113.31 35 994 36 35 994 38 995 37 41 993
SI 12:00:00 TS -23.26 113.24 35 31 996 35 997 35 40 995
SI 13:00:00 TS -23.33 113.20 30 997 34 30 997 34 997 34 38 995
SI 15:00:00 TS -23.47 113.12 32 30 998 32 998 32 35 997
SI 16:00:00 TS -23.54 113.07 30 999 31 30 999 31 998 31 33 997
SI 18:00:00 TS -23.68 112.97 30 30 999 30 1000 30 30 999
SI 19:00:00 TS -23.76 112.91 30 1000 29 30 1000 29 1000 29 29 999
SI 21:00:00 TS -23.92 112.79 27 30 1000 27 1001 27 27 1000
SI 22:00:00 TS -23.98 112.72 30 1001 26 30 1001 26 1001 26 26 1000
SI 1977-03-09 00:00:00 TS -24.06 112.57 25 26 1002 25 1003 25 25 1002
SI 01:00:00 TS -24.07 112.47 25 1003 25 25 1003 25 1003 25 1002
SI 03:00:00 TS -24.00 112.24 25 25 1003 25 1003 25 1002
SI 04:00:00 TS -23.93 112.12 25 1003 25 25 1003 25 1003 25 1002
SI 06:00:00 TS -23.72 111.90 25 25 1003 25 1003 25 1003
SI 07:00:00 TS -23.58 111.79 25 1003 25 25 1003 24 1003 24 1003
SI 09:00:00 TS -23.28 111.59 25 25 1003 22 1004 22 1003
SI 10:00:00 TS -23.12 111.49 25 1004 25 25 1004 21 1004 21 1003
SI 12:00:00 TS -22.80 111.29 25 25 1004 20 1005 20 1004
SI 13:00:00 NR -22.70 111.20 25 1005 25 1005
SI 15:00:00 NR -22.43 111.06 25 1005
SI 16:00:00 NR -22.30 111.00 25 1006 25 1006

Source Information

Agency Information
USA bsh191977.txt
TOKYO
CMA
HKO
NEWDELHI
REUNION
BOM IDCKMSTM0S.csv:Line=10805:KAREN
NADI
WELLINGTON
DS824 aus_area.dat:565:KAREN
TD9636 cons_worldwide_trop_cyclone_18710101-19891231-006:Line=10352
TD9635
NEUMANN tracks.sh:Storm=498:KAREN:BSH1977:BM481
MLC

All available IBTrACS Data

SEASON BASIN SUBBASIN ISO_TIME_________ NATURE LAT LON WMO WIND WMO PRES WMO AGENCY DIST2LAND LANDFALL IFLAG USA AGENCY USA ATCF_ID USA LAT USA LON USA WIND USA SSHS BOM LAT BOM LON BOM TYPE BOM WIND BOM PRES BOM CI DS824 LAT DS824 LON DS824 STAGE DS824 WIND DS824 PRES TD9636 LAT TD9636 LON TD9636 STAGE TD9636 WIND NEUMANN LAT NEUMANN LON NEUMANN CLASS NEUMANN WIND NEUMANN PRES BOM GUST BOM GUST_PER STORM SPEED STORM DIR
Year degrees north degrees east kts mb km km degrees north degrees east kts 1 degrees north degrees east kts mb 1 degrees north degrees east kts mb degrees north degrees east kts degrees north degrees east kts mb kts second kts degrees
1977 SI WA 1977-03-02 01:00:00 NR -14.00 124.50 25 1002 bom 101 101 ______O_______ -1 -14.00 124.50 20 25 1002 1.00 4 270
1977 SI WA 03:00:00 NR -14.00 124.37 109 109 ______P_______ -1 -14.00 124.37 20 25 1001 4 270
1977 SI WA 04:00:00 NR -14.00 124.30 25 1001 bom 118 118 ______O_______ -1 -14.00 124.30 20 25 1001 1.50 3 270
1977 SI WA 06:00:00 TS -14.00 124.19 127 127 ______P__O__O_ -1 -14.00 124.17 20 25 999 -14.00 124.20 TC 30 999 -14.00 124.30 TC 30 1000 3 274
1977 SI WA 07:00:00 TS -13.99 124.14 25 999 bom 136 136 ______O__P__P_ -1 -14.00 124.10 20 25 999 1.50 -13.98 124.13 TC 30 999 -13.98 124.23 TC 30 999 4 280
1977 SI WA 09:00:00 TS -13.97 124.02 145 145 ______P__P__P_ -1 -14.01 123.97 20 25 999 -13.94 124.00 TC 30 999 -13.94 124.10 TC 30 999 4 282
1977 SI WA 10:00:00 TS -13.95 123.96 25 999 bom 145 145 ______O__P__P_ -1 -14.00 123.90 20 25 999 1.50 -13.93 123.93 TC 30 999 -13.93 124.03 TC 30 999 4 286
1977 SI WA 12:00:00 TS -13.91 123.80 170 170 O_____P__OO_O_ jtwc_sh SH191977 -13.90 123.70 30 -1 -13.93 123.77 20 25 999 -13.90 123.80 TC 30 999 -13.90 123.70 1 30 -13.90 123.90 TC 30 999 5 283
1977 SI WA 13:00:00 TS -13.90 123.71 25 999 bom 179 179 P_____O__PP_P_ SH191977 -13.90 123.63 30 -1 -13.90 123.70 20 25 999 1.50 -13.89 123.73 TC 30 998 -13.90 123.63 1 30 -13.89 123.83 TC 30 998 4 274
1977 SI WA 15:00:00 TS -13.89 123.57 189 189 P_____P__PP_P_ SH191977 -13.89 123.50 32 -1 -13.89 123.57 20 28 998 -13.88 123.60 TC 32 998 -13.91 123.48 1 31 -13.88 123.70 TC 32 998 4 270
1977 SI WA 16:00:00 TS -13.90 123.49 30 998 bom 199 199 P_____O__PP_P_ SH191977 -13.89 123.44 33 -1 -13.90 123.50 20 30 998 2.00 -13.89 123.53 TC 33 997 -13.91 123.41 1 31 -13.89 123.63 TC 33 997 4 267
1977 SI WA 18:00:00 TS -13.90 123.36 209 217 O_____P__OP_O_ jtwc_sh SH191977 -13.90 123.30 35 0 -13.89 123.37 20 30 997 -13.90 123.40 TC 35 997 -13.92 123.27 1 32 -13.90 123.50 TC 35 997 4 265
1977 SI WA 19:00:00 TS -13.91 123.29 30 997 bom 217 217 P_____O__PP_P_ SH191977 -13.91 123.23 35 0 -13.90 123.30 20 30 997 2.00 -13.91 123.33 TC 35 996 -13.93 123.21 1 32 -13.91 123.43 TC 35 996 4 258
1977 SI WA 21:00:00 TS -13.94 123.15 225 227 P_____P__PP_P_ SH191977 -13.94 123.09 35 0 -13.97 123.17 20 30 997 -13.93 123.20 TC 35 996 -13.95 123.08 1 33 -13.94 123.29 TC 35 996 4 255
1977 SI WA 22:00:00 TS -13.96 123.09 30 997 bom 227 227 P_____O__PP_P_ SH191977 -13.95 123.03 35 0 -14.00 123.10 20 30 997 2.00 -13.95 123.13 TC 35 996 -13.96 123.01 1 34 -13.96 123.23 TC 35 996 4 254
1977 SI WA 1977-03-03 00:00:00 TS -14.00 122.96 233 233 O_____P__OO_O_ jtwc_sh SH191977 -14.00 122.90 35 0 -14.00 122.97 20 30 996 -14.00 123.00 TC 35 996 -14.00 122.90 2 35 -14.00 123.10 TC 35 996 4 253
1977 SI WA 01:00:00 TS -14.02 122.90 30 996 bom 241 240 P_____O__PP_P_ SH191977 -14.03 122.84 35 0 -14.00 122.90 20 30 996 2.00 -14.03 122.93 TC 35 995 -14.02 122.85 2 35 -14.01 123.04 TC 35 995 4 246
1977 SI WA 03:00:00 TS -14.08 122.78 240 240 P_____P__PP_P_ SH191977 -14.09 122.74 35 0 -14.06 122.76 20 30 996 -14.09 122.79 TC 37 995 -14.07 122.75 2 35 -14.04 122.93 TC 37 995 4 242
1977 SI WA 04:00:00 TS -14.11 122.73 30 996 bom 248 240 P_____O__PP_P_ SH191977 -14.13 122.69 35 0 -14.10 122.70 20 30 996 2.00 -14.13 122.72 TC 38 994 -14.10 122.70 2 35 -14.06 122.89 TC 38 994 3 235
1977 SI WA 06:00:00 TS -14.17 122.64 249 249 O_____P__OP_O_ jtwc_sh SH191977 -14.20 122.60 35 0 -14.17 122.63 20 33 994 -14.20 122.60 TC 40 994 -14.17 122.62 2 35 -14.10 122.80 TC 40 994 3 232
1977 SI WA 07:00:00 TS -14.21 122.60 35 994 bom 249 242 P_____O__PP_P_ SH191977 -14.23 122.56 35 0 -14.20 122.60 20 35 994 2.50 -14.23 122.56 TC 40 994 -14.21 122.58 2 35 -14.13 122.76 TC 40 994 3 225
1977 SI WA 09:00:00 TS -14.27 122.53 248 248 P_____P__PP_P_ SH191977 -14.30 122.49 35 0 -14.27 122.53 20 35 994 -14.30 122.48 TC 40 994 -14.28 122.51 2 35 -14.19 122.69 TC 40 994 3 224
1977 SI WA 10:00:00 TS -14.31 122.50 35 994 bom 248 238 P_____O__PP_P_ SH191977 -14.33 122.46 35 0 -14.30 122.50 20 35 994 2.50 -14.33 122.46 TC 40 994 -14.32 122.47 2 35 -14.23 122.66 TC 40 994 3 220
1977 SI WA 12:00:00 TS -14.38 122.44 241 241 O_____P__OO_O_ jtwc_sh SH191977 -14.40 122.40 35 0 -14.37 122.43 20 38 994 -14.40 122.40 TC 40 994 -14.40 122.40 2 35 -14.30 122.60 TC 40 994 3 224
1977 SI WA 13:00:00 TS -14.41 122.40 40 994 bom 241 230 P_____O__PP_P_ SH191977 -14.43 122.37 35 0 -14.40 122.40 30 40 994 3.00 -14.43 122.37 TC 40 993 -14.44 122.36 2 35 -14.33 122.57 TC 40 993 3 224
1977 SI WA 15:00:00 TS -14.48 122.33 232 232 P_____P__PP_P_ SH191977 -14.49 122.30 37 0 -14.47 122.33 30 40 993 -14.50 122.30 TC 42 993 -14.51 122.28 2 37 -14.39 122.50 TC 42 993 3 224
1977 SI WA 16:00:00 TS -14.51 122.30 40 993 bom 232 222 P_____O__PP_P_ SH191977 -14.53 122.27 38 0 -14.50 122.30 30 40 993 3.00 -14.53 122.27 TC 43 992 -14.55 122.24 2 38 -14.43 122.47 TC 43 992 3 222
1977 SI WA 18:00:00 TS -14.58 122.23 225 225 O_____P__OP_O_ jtwc_sh SH191977 -14.60 122.20 40 0 -14.57 122.23 30 43 992 -14.60 122.20 TC 45 992 -14.63 122.16 2 40 -14.50 122.40 TC 45 992 3 221
1977 SI WA 19:00:00 TS -14.62 122.20 45 992 bom 225 214 P_____O__PP_P_ SH191977 -14.64 122.16 40 0 -14.60 122.20 30 45 992 3.00 -14.63 122.16 TC 45 992 -14.67 122.13 2 40 -14.54 122.37 TC 45 992 3 221
1977 SI WA 21:00:00 TS -14.71 122.13 218 218 P_____P__PP_P_ SH191977 -14.74 122.09 42 0 -14.66 122.13 30 45 992 -14.69 122.09 TC 45 992 -14.76 122.07 2 42 -14.64 122.30 TC 45 992 3 217
1977 SI WA 22:00:00 TS -14.75 122.09 45 992 bom 208 203 P_____O__PP_P_ SH191977 -14.79 122.05 43 0 -14.70 122.10 30 45 992 3.00 -14.73 122.06 TC 45 992 -14.80 122.04 2 43 -14.69 122.27 TC 45 992 3 210
1977 SI WA 1977-03-04 00:00:00 TS -14.86 122.04 203 203 O_____P__OO_O_ jtwc_sh SH191977 -14.90 122.00 45 0 -14.84 122.03 30 45 992 -14.80 122.00 TC 45 992 -14.90 122.00 2 45 -14.80 122.20 TC 45 992 3 207
1977 SI WA 01:00:00 TS -14.91 122.02 45 992 bom 203 193 P_____O__PP_P_ SH191977 -14.95 121.99 45 0 -14.90 122.00 30 45 992 3.00 -14.84 121.97 TC 45 991 -14.95 121.99 2 45 -14.85 122.16 TC 45 991 3 202
1977 SI WA 03:00:00 TS -15.00 121.98 193 193 P_____P__PP_P_ SH191977 -15.04 121.98 47 0 -14.96 121.93 30 45 991 -14.93 121.93 TC 47 990 -15.06 121.97 2 47 -14.94 122.08 TC 45 991 3 198
1977 SI WA 04:00:00 TS -15.05 121.97 45 991 bom 193 174 P_____O__PP_P_ SH191977 -15.09 121.99 48 0 -15.00 121.90 30 45 991 3.00 -14.99 121.91 TC 48 990 -15.12 121.96 2 48 -14.99 122.04 TC 45 990 3 185
1977 SI WA 06:00:00 TS -15.16 121.96 174 174 O_____P__OP_O_ jtwc_sh SH191977 -15.20 122.00 50 0 -15.13 121.89 30 48 989 -15.10 121.90 TC 50 989 -15.23 121.96 2 50 -15.10 122.00 TC 45 990 4 0
1977 SI WA 07:00:00 TS -15.22 121.96 50 989 bom 174 156 P_____O__PP_P_ SH191977 -15.26 122.00 50 0 -15.20 121.90 30 50 989 3.50 -15.16 121.91 TC 50 988 -15.30 121.97 2 50 -15.16 122.00 TC 45 989 4 0
1977 SI WA 09:00:00 TS -15.36 121.97 156 156 P_____P__PP_P_ SH191977 -15.40 122.00 52 0 -15.33 121.89 30 50 988 -15.29 121.93 TC 50 988 -15.42 121.98 2 52 -15.29 122.03 TC 47 988 4 0
1977 SI WA 10:00:00 TS -15.42 121.98 50 988 bom 156 139 P_____O__PP_P_ SH191977 -15.47 122.00 53 0 -15.40 121.90 30 50 988 3.50 -15.36 121.96 TC 50 987 -15.48 121.98 2 53 -15.36 122.05 TC 48 988 4 172
1977 SI WA 12:00:00 TS -15.56 122.01 139 139 O_____P__OO_O_ jtwc_sh SH191977 -15.60 122.00 55 0 -15.53 121.97 30 50 987 -15.50 122.00 TC 50 987 -15.60 122.00 2 55 -15.50 122.10 TC 50 987 4 168
1977 SI WA 13:00:00 TS -15.62 122.02 50 987 bom 139 131 P_____O__PP_P_ SH191977 -15.65 122.00 55 0 -15.60 122.00 30 50 987 3.50 -15.57 122.02 TC 50 986 -15.65 122.01 2 55 -15.57 122.12 TC 50 986 4 172
1977 SI WA 15:00:00 TS -15.74 122.04 131 123 P_____P__PP_P_ SH191977 -15.75 121.99 57 0 -15.73 122.00 30 53 986 -15.71 122.06 TC 50 986 -15.76 122.03 2 56 -15.71 122.16 TC 52 985 4 0
1977 SI WA 16:00:00 TS -15.79 122.05 55 986 bom 123 108 P_____O__PP_P_ SH191977 -15.80 121.99 58 0 -15.80 122.00 30 55 986 4.00 -15.77 122.07 TC 50 986 -15.82 122.04 2 56 -15.77 122.17 TC 53 984 4 166
1977 SI WA 18:00:00 TS -15.91 122.07 108 100 O_____P__OP_O_ jtwc_sh SH191977 -15.90 122.00 60 0 -15.94 122.07 30 55 986 -15.90 122.10 TC 50 986 -15.93 122.06 2 57 -15.90 122.20 TC 55 983 4 168
1977 SI WA 19:00:00 TS -15.97 122.09 55 986 bom 100 92 P_____O__PP_P_ SH191977 -15.96 122.01 60 0 -16.00 122.10 30 55 986 4.00 -15.95 122.11 TC 50 985 -15.98 122.08 2 57 -15.95 122.21 TC 55 982 3 165
1977 SI WA 21:00:00 TS -16.07 122.10 92 92 P_____P__PP_P_ SH191977 -16.09 122.05 60 0 -16.06 122.11 30 55 985 -16.03 122.11 TC 52 985 -16.10 122.09 2 58 -16.04 122.21 TC 57 982 3 174
1977 SI WA 22:00:00 TS -16.12 122.11 55 985 bom 92 78 P_____O__PP_P_ SH191977 -16.15 122.07 60 0 -16.10 122.10 30 55 985 4.00 -16.08 122.11 TC 53 985 -16.17 122.10 2 59 -16.09 122.21 TC 58 981 4 173
1977 SI WA 1977-03-05 00:00:00 TS -16.25 122.12 78 78 O_____P__OO_O_ jtwc_sh SH191977 -16.30 122.10 60 0 -16.22 122.10 30 55 985 -16.20 122.10 TC 55 985 -16.30 122.10 2 60 -16.20 122.20 TC 60 981 4 0
1977 SI WA 01:00:00 TS -16.33 122.12 55 985 bom 78 61 P_____O__PP_P_ SH191977 -16.38 122.11 60 0 -16.30 122.10 30 55 985 4.00 -16.29 122.09 TC 55 983 -16.37 122.11 2 60 -16.27 122.19 TC 60 980 5 185
1977 SI WA 03:00:00 TS -16.51 122.11 61 54 P_____P__PP_P_ SH191977 -16.54 122.12 62 0 -16.49 122.11 30 55 983 -16.49 122.06 TC 57 981 -16.53 122.12 2 62 -16.44 122.16 TC 62 980 5 0
1977 SI WA 04:00:00 TS -16.60 122.11 55 983 bom 54 39 P_____O__PP_P_ SH191977 -16.63 122.12 63 0 -16.60 122.10 30 55 983 4.00 -16.60 122.04 TC 58 980 -16.61 122.12 2 63 -16.52 122.14 TC 63 979 6 187
1977 SI WA 06:00:00 TS -16.78 122.07 39 30 O_____P__OP_O_ jtwc_sh SH191977 -16.80 122.10 65 1 -16.81 122.03 30 58 982 -16.80 122.00 TC 60 978 -16.78 122.11 2 65 -16.70 122.10 TC 65 979 5 190
1977 SI WA 07:00:00 TS -16.87 122.06 60 982 bom 30 30 P_____O__PP_P_ SH191977 -16.88 122.09 65 1 -16.90 122.00 30 60 982 4.00 -16.88 121.99 TC 60 978 -16.86 122.10 2 65 -16.79 122.09 TC 65 978 5 191
1977 SI WA 09:00:00 TS -17.02 122.03 33 30 P_____P__PP_P_ SH191977 -17.05 122.04 67 1 -17.04 122.00 30 60 980 -17.01 121.97 TC 60 978 -17.04 122.05 2 67 -16.96 122.06 TC 65 978 5 192
1977 SI WA 10:00:00 TS -17.10 122.00 60 980 bom 30 24 P_____O__PP_P_ SH191977 -17.13 122.00 68 1 -17.10 122.00 30 60 980 4.00 -17.07 121.96 TC 60 978 -17.13 122.01 2 68 -17.04 122.05 TC 65 977 5 202
1977 SI WA 12:00:00 TS -17.26 121.92 31 31 O_____P__OO_O_ jtwc_sh SH191977 -17.30 121.90 70 1 -17.23 121.94 30 60 979 -17.20 121.90 TC 60 979 -17.30 121.90 4 70 -17.20 122.00 TC 65 977 5 206
1977 SI WA 13:00:00 TS -17.33 121.88 60 979 bom 31 30 P_____O__PP_P_ SH191977 -17.38 121.84 70 1 -17.30 121.90 30 60 979 4.00 -17.28 121.86 TC 60 978 -17.38 121.83 4 70 -17.27 121.97 TC 65 976 6 214
1977 SI WA 15:00:00 TS -17.49 121.76 33 33 P_____P__PP_P_ SH191977 -17.55 121.70 72 1 -17.43 121.86 30 63 977 -17.44 121.75 TC 62 977 -17.55 121.66 4 71 -17.40 121.90 TC 65 976 6 218
1977 SI WA 16:00:00 TS -17.56 121.69 65 977 bom 42 42 P_____O__PP_P_ SH191977 -17.63 121.61 73 1 -17.50 121.80 40 65 977 4.50 -17.53 121.68 TC 63 977 -17.63 121.56 4 71 -17.46 121.85 TC 65 976 7 227
1977 SI WA 18:00:00 TS -17.73 121.48 64 64 O_____P__OP_O_ jtwc_sh SH191977 -17.80 121.40 75 1 -17.70 121.55 40 65 976 -17.70 121.50 TC 65 976 -17.79 121.33 4 72 -17.60 121.70 TC 65 976 8 231
1977 SI WA 19:00:00 TS -17.82 121.36 65 976 bom 77 77 P_____O__PP_P_ SH191977 -17.88 121.28 75 1 -17.80 121.40 40 65 976 4.50 -17.78 121.39 TC 65 975 -17.88 121.21 4 72 -17.68 121.60 TC 65 975 9 237
1977 SI WA 21:00:00 TS -17.98 121.09 92 92 P_____P__PP_P_ SH191977 -18.05 120.99 75 1 -17.93 121.14 40 68 975 -17.94 121.14 TC 65 975 -18.04 120.94 4 73 -17.84 121.34 TC 67 975 9 239
1977 SI WA 22:00:00 TS -18.06 120.94 70 975 bom 101 101 P_____O__PP_P_ SH191977 -18.13 120.83 75 1 -18.00 121.00 40 70 975 4.50 -18.03 121.00 TC 65 975 -18.13 120.80 4 74 -17.92 121.20 TC 68 975 10 240
1977 SI WA 1977-03-06 00:00:00 TS -18.23 120.63 124 120 O_____P__OO_O_ jtwc_sh SH191977 -18.30 120.50 75 1 -18.19 120.67 40 70 975 -18.20 120.70 TC 65 975 -18.30 120.50 4 75 -18.10 120.90 TC 70 975 10 239
1977 SI WA 01:00:00 TS -18.32 120.47 70 975 bom 130 130 P_____O__PP_P_ SH191977 -18.38 120.34 75 1 -18.30 120.50 40 70 975 4.50 -18.30 120.54 TC 65 974 -18.39 120.35 4 75 -18.20 120.76 TC 70 974 11 239
1977 SI WA 03:00:00 TS -18.51 120.15 143 138 P_____P__PP_P_ SH191977 -18.54 120.01 75 1 -18.50 120.16 40 70 974 -18.50 120.22 TC 67 974 -18.57 120.05 4 75 -18.40 120.46 TC 70 974 11 239
1977 SI WA 04:00:00 TS -18.60 119.99 70 974 bom 143 133 P_____O__PP_P_ SH191977 -18.63 119.84 75 1 -18.60 120.00 40 70 974 4.50 -18.60 120.04 TC 68 973 -18.66 119.89 4 75 -18.50 120.31 TC 70 973 11 239
1977 SI WA 06:00:00 TS -18.79 119.66 133 124 O_____P__OP_O_ jtwc_sh SH191977 -18.80 119.50 75 1 -18.80 119.74 40 73 973 -18.80 119.70 TC 70 973 -18.84 119.55 4 75 -18.70 120.00 TC 70 973 11 238
1977 SI WA 07:00:00 TS -18.88 119.51 75 973 bom 127 111 P_____O__PP_P_ SH191977 -18.90 119.34 75 1 -18.90 119.60 40 75 973 4.50 -18.89 119.54 TC 70 973 -18.94 119.38 4 75 -18.79 119.84 TC 70 973 11 238
1977 SI WA 09:00:00 TS -19.08 119.18 111 101 P_____P__PP_P_ SH191977 -19.10 119.01 75 1 -19.11 119.28 40 75 973 -19.06 119.21 TC 70 973 -19.12 119.03 4 75 -18.96 119.52 TC 70 973 11 239
1977 SI WA 10:00:00 TS -19.17 119.01 75 973 bom 101 94 P_____O__PP_P_ SH191977 -19.20 118.84 75 1 -19.20 119.10 40 75 973 4.50 -19.15 119.05 TC 70 973 -19.21 118.85 4 75 -19.04 119.35 TC 70 973 11 242
1977 SI WA 12:00:00 TS -19.34 118.65 98 94 O_____P__OO_O_ jtwc_sh SH191977 -19.40 118.50 75 1 -19.34 118.71 40 75 973 -19.30 118.70 TC 70 973 -19.40 118.50 4 75 -19.20 119.00 TC 70 973 11 244
1977 SI WA 13:00:00 TS -19.42 118.46 75 973 bom 100 89 P_____O__PP_P_ SH191977 -19.49 118.32 75 1 -19.40 118.50 40 75 973 4.50 -19.36 118.51 TC 70 972 -19.50 118.32 4 75 -19.28 118.81 TC 70 972 12 247
1977 SI WA 15:00:00 TS -19.57 118.08 89 90 P_____P__PP_P_ SH191977 -19.65 117.95 77 1 -19.53 118.10 40 78 972 -19.49 118.10 TC 70 972 -19.69 117.96 4 77 -19.44 118.40 TC 72 972 12 247
1977 SI WA 16:00:00 TS -19.65 117.88 80 972 bom 81 81 P_____O__PP_P_ SH191977 -19.73 117.76 78 1 -19.60 117.90 40 80 972 5.00 -19.55 117.89 TC 70 971 -19.78 117.78 4 78 -19.52 118.19 TC 73 971 12 246
1977 SI WA 18:00:00 TS -19.81 117.50 88 85 O_____P__OP_O_ jtwc_sh SH191977 -19.90 117.40 80 1 -19.70 117.50 40 80 971 -19.70 117.50 TC 70 971 -19.97 117.42 4 80 -19.70 117.80 TC 75 971 12 244
1977 SI WA 19:00:00 TS -19.91 117.32 80 971 bom 90 49 P_____O__PP_P_ SH191977 -20.00 117.23 80 1 -19.80 117.30 40 80 971 5.00 -19.81 117.32 TC 70 970 -20.07 117.24 4 80 -19.81 117.62 TC 75 970 12 235
1977 SI WA 21:00:00 TS -20.17 116.96 49 45 P_____P__PP_P_ SH191977 -20.21 116.89 82 1 -20.25 116.84 40 80 971 -20.05 116.98 TC 70 970 -20.25 116.89 4 82 -20.06 117.29 TC 75 970 12 233
1977 SI WA 21:30:00 TS -20.22 116.89 80 bom 45 33 P_____I__PP_P_ SH191977 -20.26 116.80 82 1 -20.30 116.80 40 80 971 5.00 -20.11 116.90 TC 70 970 -20.29 116.81 4 82 -20.12 117.20 TC 75 970 10 234
1977 SI WA 22:00:00 TS -20.27 116.82 80 971 bom 33 22 P_____O__PP_P_ SH191977 -20.31 116.72 83 2 -20.30 116.80 40 80 971 5.00 -20.17 116.81 TC 70 970 -20.33 116.72 4 83 -20.18 117.12 TC 75 970 10 237
1977 SI WA 1977-03-07 00:00:00 TS -20.45 116.51 23 23 O_____P__OO_O_ jtwc_sh SH191977 -20.50 116.40 85 2 -20.41 116.58 40 80 970 -20.40 116.50 TC 70 970 -20.50 116.40 4 85 -20.40 116.80 TC 75 970 10 239
1977 SI WA 01:00:00 TS -20.53 116.35 80 970 bom 38 24 P_____O__PP_P_ SH191977 -20.58 116.24 84 2 -20.50 116.40 40 80 970 5.00 -20.48 116.34 TC 70 970 -20.57 116.24 4 83 -20.48 116.63 TC 75 970 10 244
1977 SI WA 03:00:00 TS -20.67 116.03 30 30 P_____P__PP_P_ SH191977 -20.71 115.93 82 1 -20.63 116.07 40 80 970 -20.62 116.03 TC 70 970 -20.71 115.95 4 81 -20.62 116.28 TC 75 970 10 246
1977 SI WA 04:00:00 TS -20.73 115.87 80 970 bom 38 35 P_____O__PP_P_ SH191977 -20.78 115.78 81 1 -20.70 115.90 40 80 970 5.00 -20.68 115.88 TC 70 970 -20.77 115.80 4 80 -20.68 116.11 TC 75 970 9 246
1977 SI WA 06:00:00 TS -20.86 115.58 38 38 O_____P__OP_O_ jtwc_sh SH191977 -20.90 115.50 80 1 -20.83 115.55 40 80 970 -20.80 115.60 TC 70 970 -20.90 115.53 4 77 -20.80 115.80 TC 75 970 9 245
1977 SI WA 07:00:00 TS -20.92 115.45 80 970 bom 53 45 P_____O__PP_P_ SH191977 -20.96 115.37 78 1 -20.90 115.40 40 80 970 5.00 -20.87 115.47 TC 68 971 -20.96 115.40 4 76 -20.87 115.66 TC 74 970 8 241
1977 SI WA 09:00:00 TS -21.05 115.21 60 53 P_____P__PP_P_ SH191977 -21.08 115.13 75 1 -21.03 115.19 40 80 971 -21.00 115.23 TC 65 974 -21.09 115.15 4 73 -21.00 115.42 TC 72 972 8 239
1977 SI WA 10:00:00 TS -21.12 115.10 80 972 bom 56 44 P_____O__PP_P_ SH191977 -21.15 115.02 73 1 -21.10 115.10 40 80 972 5.00 -21.07 115.11 TC 63 975 -21.16 115.03 4 72 -21.07 115.31 TC 71 973 7 236
1977 SI WA 12:00:00 TS -21.26 114.88 44 44 O_____P__OO_O_ jtwc_sh SH191977 -21.30 114.80 70 1 -21.23 114.90 40 73 976 -21.20 114.90 TC 60 978 -21.30 114.80 4 70 -21.20 115.10 TC 70 975 8 235
1977 SI WA 13:00:00 TS -21.33 114.77 70 978 bom 45 33 P_____O__PP_P_ SH191977 -21.39 114.68 68 1 -21.30 114.80 40 70 978 4.50 -21.26 114.79 TC 58 979 -21.38 114.68 4 68 -21.26 115.00 TC 67 976 8 233
1977 SI WA 15:00:00 TS -21.49 114.55 33 24 P_____P__PP_P_ SH191977 -21.59 114.44 65 1 -21.43 114.60 40 66 981 -21.38 114.59 TC 55 982 -21.56 114.44 4 65 -21.38 114.80 TC 62 979 8 232
1977 SI WA 16:00:00 TS -21.57 114.44 65 983 bom 30 24 P_____O__PP_P_ SH191977 -21.70 114.32 63 0 -21.50 114.50 40 65 983 4.50 -21.44 114.49 TC 53 983 -21.65 114.33 4 63 -21.45 114.70 TC 60 980 8 229
1977 SI WA 18:00:00 TS -21.74 114.24 24 11 O_____P__OP_O_ jtwc_sh SH191977 -21.90 114.10 60 0 -21.62 114.31 40 61 985 -21.60 114.30 TC 50 986 -21.84 114.11 4 60 -21.60 114.50 TC 55 983 8 228
1977 SI WA 19:00:00 TS -21.83 114.13 60 986 bom 11 0 P_____O__PP_P_ SH191977 -21.99 114.00 58 0 -21.70 114.20 30 60 986 4.00 -21.70 114.19 TC 49 986 -21.94 114.01 4 58 -21.69 114.38 TC 54 983 8 226
1977 SI WA 21:00:00 TS -22.04 113.91 10 0 P_____P__PP_P_ SH191977 -22.16 113.81 55 0 -21.96 113.92 30 60 986 -21.94 113.98 TC 47 988 -22.13 113.83 4 55 -21.89 114.12 TC 52 985 9 223
1977 SI WA 22:00:00 TS -22.14 113.81 60 987 bom 10 10 P_____O__PP_P_ SH191977 -22.24 113.73 53 0 -22.10 113.80 30 60 987 4.00 -22.07 113.88 TC 46 988 -22.22 113.74 4 53 -21.99 114.00 TC 51 985 84 84 8 219
1977 SI WA 1977-03-08 00:00:00 TS -22.33 113.66 10 15 O_____P__OO_O_ jtwc_sh SH191977 -22.40 113.60 50 0 -22.31 113.65 30 53 989 -22.30 113.70 TC 45 990 -22.40 113.60 2 50 -22.20 113.80 TC 50 987 7 215
1977 SI WA 01:00:00 TS -22.43 113.60 50 990 bom 15 10 P_____O__PP_P_ SH191977 -22.49 113.55 48 0 -22.40 113.60 30 50 990 3.50 -22.40 113.63 TC 45 990 -22.48 113.54 2 48 -22.31 113.74 TC 49 987 6 204
1977 SI WA 03:00:00 TS -22.61 113.52 10 10 P_____P__PP_P_ SH191977 -22.66 113.48 45 0 -22.61 113.53 30 50 990 -22.57 113.52 TC 45 991 -22.64 113.45 2 46 -22.51 113.66 TC 47 988 6 201
1977 SI WA 04:00:00 TS -22.70 113.49 50 990 bom 15 15 P_____O__PP_P_ SH191977 -22.74 113.45 43 0 -22.70 113.50 30 50 990 3.50 -22.65 113.48 TC 45 991 -22.72 113.42 2 45 -22.62 113.64 TC 46 988 5 199
1977 SI WA 06:00:00 TS -22.85 113.43 38 38 O_____P__OP_O_ jtwc_sh SH191977 -22.90 113.40 40 0 -22.84 113.43 30 46 991 -22.80 113.40 TC 45 992 -22.87 113.36 2 42 -22.80 113.60 TC 45 990 5 198
1977 SI WA 07:00:00 TS -22.92 113.40 45 992 bom 38 38 P_____O__PP_P_ SH191977 -22.97 113.37 39 0 -22.90 113.40 30 45 992 3.00 -22.87 113.36 TC 43 992 -22.95 113.34 2 41 -22.88 113.57 TC 44 990 5 204
1977 SI WA 09:00:00 TS -23.06 113.34 51 51 P_____P__PP_P_ SH191977 -23.11 113.31 37 0 -23.03 113.33 30 38 993 -23.01 113.29 TC 40 994 -23.09 113.29 2 38 -23.01 113.51 TC 42 992 4 203
1977 SI WA 10:00:00 TS -23.13 113.31 35 994 bom 51 51 P_____O__PP_P_ SH191977 -23.17 113.27 36 0 -23.10 113.30 30 35 994 3.00 -23.07 113.26 TC 38 995 -23.16 113.26 2 37 -23.08 113.47 TC 41 993 4 203
1977 SI WA 12:00:00 TS -23.26 113.24 61 61 O_____P__OO_O_ jtwc_sh SH191977 -23.30 113.20 35 0 -23.23 113.23 30 31 996 -23.20 113.20 TC 35 997 -23.30 113.20 2 35 -23.20 113.40 TC 40 995 5 206
1977 SI WA 13:00:00 TS -23.33 113.20 30 997 bom 61 60 P_____O__PP_P_ SH191977 -23.37 113.16 34 0 -23.30 113.20 20 30 997 2.50 -23.27 113.17 TC 34 997 -23.40 113.16 2 34 -23.27 113.36 TC 38 995 5 208
1977 SI WA 15:00:00 TS -23.47 113.12 60 60 P_____P__PP_P_ SH191977 -23.50 113.06 32 -1 -23.43 113.14 20 30 998 -23.40 113.11 TC 32 998 -23.60 113.07 2 32 -23.40 113.26 TC 35 997 5 209
1977 SI WA 16:00:00 TS -23.54 113.07 30 999 bom 60 52 P_____O__PP_P_ SH191977 -23.57 113.01 31 -1 -23.50 113.10 20 30 999 2.50 -23.47 113.08 TC 31 998 -23.69 113.02 2 31 -23.47 113.21 TC 33 997 5 214
1977 SI WA 18:00:00 TS -23.68 112.97 55 55 O_____P__OP_O_ jtwc_sh SH191977 -23.70 112.90 30 -1 -23.63 112.97 20 30 999 -23.60 113.00 TC 30 1000 -23.87 112.92 2 30 -23.60 113.10 TC 30 999 5 214
1977 SI WA 19:00:00 TS -23.76 112.91 30 1000 bom 62 62 P_____O__PP_P_ SH191977 -23.79 112.84 29 -1 -23.70 112.90 20 30 1000 2.50 -23.68 112.96 TC 29 1000 -23.95 112.86 2 29 -23.69 113.04 TC 29 999 6 215
1977 SI WA 21:00:00 TS -23.92 112.79 71 71 P_____P__PP_P_ SH191977 -23.95 112.72 27 -1 -23.83 112.77 20 30 1000 -23.85 112.85 TC 27 1001 -24.06 112.73 2 27 -23.85 112.92 TC 27 1000 6 220
1977 SI WA 22:00:00 TS -23.98 112.72 30 1001 bom 81 81 P_____O__PP_P_ SH191977 -24.02 112.65 26 -1 -23.90 112.70 20 30 1001 2.50 -23.92 112.78 TC 26 1001 -24.09 112.66 2 26 -23.92 112.85 TC 26 1000 5 235
1977 SI WA 1977-03-09 00:00:00 TS -24.06 112.57 87 87 O_____P__OO_O_ jtwc_sh SH191977 -24.10 112.50 25 -1 -24.06 112.59 20 26 1002 -24.00 112.60 TC 25 1003 -24.10 112.50 1 25 -24.00 112.70 TC 25 1002 5 249
1977 SI WA 01:00:00 TS -24.07 112.47 25 1003 bom 97 97 P_____O__PP_P_ SH191977 -24.11 112.41 25 -1 -24.10 112.50 20 25 1003 2.00 -24.01 112.48 TC 25 1003 -24.07 112.41 1 -24.00 112.61 TC 25 1002 6 281
1977 SI WA 03:00:00 TS -24.00 112.24 129 129 P_____P__PP_P_ SH191977 -24.06 112.22 25 -1 -24.08 112.17 20 25 1003 -23.95 112.21 TC 25 1003 -23.94 112.22 1 -23.93 112.41 TC 25 1002 7 292
1977 SI WA 04:00:00 TS -23.93 112.12 25 1003 bom 142 142 P_____O__PP_P_ SH191977 -24.00 112.12 25 -1 -24.00 112.00 20 25 1003 2.00 -23.89 112.06 TC 25 1003 -23.85 112.12 1 -23.87 112.31 TC 25 1002 9 312
1977 SI WA 06:00:00 TS -23.72 111.90 164 164 O_____P__OP_O_ jtwc_sh SH191977 -23.80 111.90 25 -1 -23.68 111.78 20 25 1003 -23.70 111.80 TC 25 1003 -23.62 111.90 1 -23.70 112.10 TC 25 1003 9 319
1977 SI WA 07:00:00 TS -23.58 111.79 25 1003 bom 176 176 P_____O__PP_P_ SH191977 -23.66 111.79 25 -1 -23.50 111.70 20 25 1003 2.00 -23.58 111.69 TC 24 1003 -23.48 111.79 1 -23.60 112.00 TC 24 1003 10 327
1977 SI WA 09:00:00 TS -23.28 111.59 204 204 P_____P__PP_P_ SH191977 -23.31 111.55 25 -1 -23.23 111.57 20 25 1003 -23.29 111.51 TC 22 1004 -23.19 111.55 1 -23.37 111.79 TC 22 1003 11 329
1977 SI WA 10:00:00 TS -23.12 111.49 25 1004 bom 222 222 P_____O__PP_P_ SH191977 -23.12 111.44 25 -1 -23.10 111.50 20 25 1004 2.00 -23.13 111.43 TC 21 1004 -23.03 111.44 1 -23.25 111.70 TC 21 1003 11 330
1977 SI WA 12:00:00 TS -22.80 111.29 236 236 O_____P__OO_O_ jtwc_sh SH191977 -22.70 111.20 25 -1 -22.83 111.30 20 25 1004 -22.80 111.30 TC 20 1005 -22.70 111.20 1 -23.00 111.50 TC 20 1004 10 327
1977 SI WA 13:00:00 NR -22.70 111.20 25 1005 bom 246 246 ______O_______ SH191977 -1 -22.70 111.20 20 25 1005 1.50 TC 1 TC 9 330
1977 SI WA 15:00:00 NR -22.43 111.06 257 267 ______P_______ SH191977 -1 -22.43 111.06 20 25 1005 TC 1 TC 9 335
1977 SI WA 16:00:00 NR -22.30 111.00 25 1006 bom 269 ______O_______ SH191977 -1 -22.30 111.00 20 25 1006 1.50 TC 1 TC 9 339